createdAt,value
2022-12-23T00:00:23.296Z,8.82
2022-12-23T00:03:13.183Z,9.90
2022-12-23T00:05:42.129Z,8.32
2022-12-23T00:08:10.300Z,7.13
2022-12-23T00:10:40.352Z,7.53
2022-12-23T00:13:26.968Z,8.50
2022-12-23T00:16:03.069Z,11.35
2022-12-23T00:18:32.756Z,9.82
2022-12-23T00:21:08.132Z,7.40
2022-12-23T00:23:38.809Z,9.90
2022-12-23T00:26:08.176Z,7.45
2022-12-23T00:28:36.317Z,7.93
2022-12-23T00:31:06.860Z,9.60
2022-12-23T00:33:39.542Z,7.45
2022-12-23T00:36:13.691Z,6.47
2022-12-23T00:38:59.556Z,7.53
2022-12-23T00:41:46.001Z,9.55
2022-12-23T00:44:14.167Z,9.98
2022-12-23T00:46:42.593Z,9.67
2022-12-23T00:49:32.348Z,6.47
2022-12-23T00:52:00.986Z,10.43
2022-12-23T00:54:29.885Z,6.17
2022-12-23T00:56:58.658Z,9.45
2022-12-23T00:59:26.934Z,8.88
2022-12-23T01:02:13.037Z,11.75
2022-12-23T01:05:00.204Z,9.35
2022-12-23T01:07:28.629Z,9.65
2022-12-23T01:09:56.748Z,8.73
2022-12-23T01:12:25.203Z,13.82
2022-12-23T01:14:53.315Z,15.50
2022-12-23T01:17:21.866Z,14.30
2022-12-23T01:19:51.598Z,11.35
2022-12-23T01:22:20.071Z,13.32
2022-12-23T01:24:48.721Z,12.10
2022-12-23T01:27:17.085Z,13.15
2022-12-23T01:29:45.229Z,10.27
2022-12-23T01:32:13.870Z,10.80
2022-12-23T01:34:42.080Z,9.73
2022-12-23T01:37:11.901Z,10.33
2022-12-23T01:42:31.099Z,12.70
2022-12-23T01:45:01.684Z,13.45
2022-12-23T01:47:34.903Z,13.77
2022-12-23T01:50:09.446Z,14.50
2022-12-23T01:52:44.810Z,14.48
2022-12-23T01:55:15.585Z,12.30
2022-12-23T01:57:46.260Z,13.35
2022-12-23T02:00:32.876Z,15.88
2022-12-23T02:03:15.347Z,12.95
2022-12-23T02:05:47.143Z,12.57
2022-12-23T02:08:36.360Z,11.55
2022-12-23T02:11:31.710Z,18.23
2022-12-23T02:14:31.429Z,14.00
2022-12-23T02:17:10.634Z,11.60
2022-12-23T02:23:00.660Z,11.88
2022-12-23T02:25:59.568Z,17.40
2022-12-23T02:28:51.359Z,13.23
2022-12-23T02:31:31.044Z,14.77
2022-12-23T02:34:05.928Z,15.80
2022-12-23T02:36:40.624Z,8.55
2022-12-23T02:39:16.137Z,12.45
2022-12-23T02:41:52.898Z,13.82
2022-12-23T02:44:31.297Z,14.85
2022-12-23T02:47:05.575Z,11.82
2022-12-23T02:49:37.558Z,11.90
2022-12-23T02:52:11.613Z,15.10
2022-12-23T02:54:45.341Z,11.35
2022-12-23T02:57:16.453Z,10.65
2022-12-23T02:59:49.350Z,13.43
2022-12-23T03:02:19.360Z,13.20
2022-12-23T03:04:47.650Z,16.27
2022-12-23T03:07:21.045Z,17.77
2022-12-23T03:09:59.852Z,14.30
2022-12-23T03:12:41.455Z,13.00
2022-12-23T03:15:23.467Z,12.43
2022-12-23T03:18:05.674Z,11.93
2022-12-23T03:20:43.436Z,12.70
2022-12-23T03:23:19.579Z,12.43
2022-12-23T03:25:55.058Z,12.57
2022-12-23T03:28:32.365Z,13.88
2022-12-23T03:31:38.967Z,15.02
2022-12-23T03:34:12.961Z,11.43
2022-12-23T03:36:46.851Z,13.55
2022-12-23T03:39:19.674Z,14.38
2022-12-23T03:41:53.224Z,14.43
2022-12-23T03:44:27.245Z,15.07
2022-12-23T03:47:02.842Z,13.00
2022-12-23T03:49:36.577Z,17.17
2022-12-23T03:52:08.992Z,15.90
2022-12-23T03:54:42.626Z,12.00
2022-12-23T03:57:12.809Z,10.63
2022-12-23T03:59:45.393Z,14.10
2022-12-23T04:02:19.509Z,13.60
2022-12-23T04:05:06.005Z,13.43
2022-12-23T04:07:38.286Z,14.25
2022-12-23T04:10:08.770Z,17.30
2022-12-23T04:12:37.925Z,16.27
2022-12-23T04:17:41.654Z,18.98
2022-12-23T04:20:12.383Z,15.20
2022-12-23T04:22:43.508Z,16.40
2022-12-23T04:25:12.120Z,22.33
2022-12-23T04:27:40.444Z,15.27
2022-12-23T04:30:10.655Z,18.58
2022-12-23T04:32:39.469Z,17.88
2022-12-23T04:35:08.379Z,17.85
2022-12-23T04:37:38.195Z,16.42
2022-12-23T04:40:08.313Z,20.02
2022-12-23T04:42:36.730Z,19.63
2022-12-23T04:45:06.517Z,21.25
2022-12-23T04:47:35.538Z,16.63
2022-12-23T04:50:05.214Z,20.63
2022-12-23T04:55:03.400Z,16.43
2022-12-23T04:57:31.483Z,19.77
2022-12-23T05:00:00.155Z,18.60
2022-12-23T05:02:28.781Z,23.27
2022-12-23T05:04:57.324Z,16.33
2022-12-23T05:07:25.485Z,17.13
2022-12-23T05:09:54.186Z,20.47
2022-12-23T05:12:23.673Z,17.55
2022-12-23T05:14:52.139Z,16.73
2022-12-23T05:17:20.357Z,18.38
2022-12-23T05:19:48.915Z,18.15
2022-12-23T05:22:17.274Z,25.80
2022-12-23T05:24:45.714Z,19.17
2022-12-23T05:27:13.823Z,24.85
2022-12-23T05:29:43.676Z,16.05
2022-12-23T05:32:11.781Z,21.85
2022-12-23T05:34:40.339Z,17.67
2022-12-23T05:37:08.626Z,17.38
2022-12-23T05:39:37.198Z,15.87
2022-12-23T05:42:05.673Z,19.10
2022-12-23T05:44:34.204Z,17.52
2022-12-23T05:47:03.766Z,18.13
2022-12-23T05:49:32.194Z,17.15
2022-12-23T05:52:00.393Z,20.15
2022-12-23T05:54:28.841Z,19.90
2022-12-23T05:56:56.947Z,14.10
2022-12-23T05:59:30.589Z,16.23
2022-12-23T06:01:59.543Z,19.98
2022-12-23T06:04:29.711Z,16.52
2022-12-23T06:06:58.414Z,19.90
2022-12-23T06:09:27.892Z,16.10
2022-12-23T06:11:56.057Z,16.75
2022-12-23T06:14:28.744Z,13.43
2022-12-23T06:16:57.655Z,17.35
2022-12-23T06:19:27.599Z,17.27
2022-12-23T06:21:57.347Z,13.82
2022-12-23T06:24:25.896Z,12.05
2022-12-23T06:26:57.268Z,16.40
2022-12-23T06:29:26.134Z,19.50
2022-12-23T06:31:54.457Z,14.27
2022-12-23T06:34:22.962Z,14.63
2022-12-23T06:36:51.136Z,15.55
2022-12-23T06:39:21.106Z,13.03
2022-12-23T06:41:49.479Z,16.80
2022-12-23T06:44:18.317Z,16.42
2022-12-23T06:46:46.528Z,13.77
2022-12-23T06:49:15.025Z,14.17
2022-12-23T06:51:43.194Z,21.90
2022-12-23T06:54:13.004Z,13.98
2022-12-23T06:56:42.926Z,20.95
2022-12-23T06:59:11.398Z,16.50
2022-12-23T07:01:40.628Z,20.83
2022-12-23T07:04:10.345Z,14.35
2022-12-23T07:06:39.548Z,15.98
2022-12-23T07:11:36.623Z,13.30
2022-12-23T07:14:06.608Z,14.48
2022-12-23T07:16:34.855Z,16.25
2022-12-23T07:19:03.604Z,23.10
2022-12-23T07:21:32.216Z,17.43
2022-12-23T07:24:00.693Z,15.85
2022-12-23T07:26:28.765Z,14.68
2022-12-23T07:28:57.224Z,17.23
2022-12-23T07:31:26.807Z,19.88
2022-12-23T07:33:55.451Z,20.98
2022-12-23T07:36:23.547Z,18.95
2022-12-23T07:38:52.361Z,17.48
2022-12-23T07:41:20.976Z,22.23
2022-12-23T07:43:49.522Z,20.48
2022-12-23T07:46:17.852Z,16.48
2022-12-23T07:48:47.704Z,14.70
2022-12-23T07:51:16.057Z,19.13
2022-12-23T07:53:44.464Z,17.93
2022-12-23T07:56:12.576Z,20.77
2022-12-23T07:58:43.016Z,15.02
2022-12-23T08:01:11.312Z,14.68
2022-12-23T08:03:39.821Z,22.50
2022-12-23T08:06:12.653Z,17.15
2022-12-23T08:08:42.232Z,15.30
2022-12-23T08:11:11.648Z,17.42
2022-12-23T08:13:42.981Z,18.35
2022-12-23T08:16:12.067Z,23.55
2022-12-23T08:21:15.827Z,22.58
2022-12-23T08:23:44.682Z,26.45
2022-12-23T08:26:15.026Z,20.07
2022-12-23T08:28:44.972Z,20.55
2022-12-23T08:31:15.145Z,23.23
2022-12-23T08:33:48.279Z,18.98
2022-12-23T08:36:23.066Z,26.05
2022-12-23T08:38:54.744Z,22.48
2022-12-23T08:41:25.314Z,19.52
2022-12-23T08:43:54.457Z,19.30
2022-12-23T08:46:23.552Z,22.00
2022-12-23T08:51:23.209Z,18.63
2022-12-23T08:53:59.642Z,18.52
2022-12-23T08:56:32.980Z,20.10
2022-12-23T08:59:02.220Z,19.50
2022-12-23T09:01:32.055Z,19.10
2022-12-23T09:04:03.172Z,21.27
2022-12-23T09:06:36.128Z,17.45
2022-12-23T09:09:04.911Z,16.58
2022-12-23T09:11:33.093Z,18.07
2022-12-23T09:14:02.195Z,22.77
2022-12-23T09:16:30.956Z,23.83
2022-12-23T09:18:59.450Z,15.20
2022-12-23T09:21:27.706Z,14.65
2022-12-23T09:23:57.877Z,23.70
2022-12-23T09:26:27.877Z,18.63
2022-12-23T09:28:56.891Z,21.33
2022-12-23T09:31:30.477Z,20.27
2022-12-23T09:34:02.645Z,19.95
2022-12-23T09:36:31.011Z,20.58
2022-12-23T09:39:00.831Z,21.30
2022-12-23T09:44:23.448Z,21.35
2022-12-23T09:46:56.130Z,24.05
2022-12-23T09:49:25.292Z,19.23
2022-12-23T09:51:55.900Z,16.52
2022-12-23T09:54:31.291Z,22.80
2022-12-23T09:57:01.656Z,17.85
2022-12-23T09:59:47.140Z,21.08
2022-12-23T10:02:25.108Z,21.25
2022-12-23T10:05:04.234Z,23.13
2022-12-23T10:07:37.500Z,20.80
2022-12-23T10:10:19.752Z,22.98
2022-12-23T10:12:52.924Z,23.67
2022-12-23T10:15:27.013Z,19.45
2022-12-23T10:17:59.692Z,18.02
2022-12-23T10:20:37.602Z,21.85
2022-12-23T10:23:12.865Z,19.48
2022-12-23T10:25:50.706Z,18.30
2022-12-23T10:28:20.725Z,22.58
2022-12-23T10:31:39.369Z,23.90
2022-12-23T10:33:59.947Z,20.50
2022-12-23T10:36:36.613Z,21.45
2022-12-23T10:39:15.506Z,19.20
2022-12-23T10:41:56.146Z,17.25
2022-12-23T10:44:59.873Z,17.02
2022-12-23T10:47:41.779Z,21.48
2022-12-23T10:50:28.985Z,16.73
2022-12-23T10:53:01.517Z,18.73
2022-12-23T10:55:35.757Z,21.67
2022-12-23T10:58:09.739Z,19.17
2022-12-23T11:00:42.518Z,14.73
2022-12-23T11:03:19.962Z,21.25
2022-12-23T11:05:51.415Z,20.83
2022-12-23T11:08:22.168Z,21.33
2022-12-23T11:10:50.485Z,18.25
2022-12-23T11:13:35.528Z,18.90
2022-12-23T11:16:19.102Z,20.30
2022-12-23T11:18:59.767Z,18.58
2022-12-23T11:21:28.562Z,21.15
2022-12-23T11:24:17.082Z,18.45
2022-12-23T11:26:47.243Z,20.60
2022-12-23T11:29:24.325Z,21.02
2022-12-23T11:31:53.246Z,19.77
2022-12-23T11:34:24.254Z,17.88
2022-12-23T11:37:03.348Z,17.63
2022-12-23T11:39:37.787Z,17.00
2022-12-23T11:42:12.626Z,20.40
2022-12-23T11:44:45.926Z,18.67
2022-12-23T11:47:29.080Z,18.02
2022-12-23T11:49:59.571Z,18.90
2022-12-23T11:52:28.964Z,19.10
2022-12-23T11:54:58.872Z,19.95
2022-12-23T11:57:38.032Z,21.85
2022-12-23T12:00:22.230Z,18.98
2022-12-23T12:02:53.531Z,20.13
2022-12-23T12:05:26.636Z,20.20
2022-12-23T12:08:01.391Z,18.25
2022-12-23T12:10:33.498Z,19.40
2022-12-23T12:13:05.005Z,21.17
2022-12-23T12:15:43.041Z,20.70
2022-12-23T12:18:14.884Z,21.20
2022-12-23T12:20:46.530Z,18.75
2022-12-23T12:23:19.438Z,18.17
2022-12-23T12:25:51.871Z,24.42
2022-12-23T12:28:25.245Z,21.83
2022-12-23T12:31:02.347Z,25.83
2022-12-23T12:33:37.797Z,20.42
2022-12-23T12:36:16.196Z,25.90
2022-12-23T12:38:49.962Z,19.60
2022-12-23T12:41:24.011Z,24.75
2022-12-23T12:44:01.739Z,22.58
2022-12-23T12:46:36.388Z,26.65
2022-12-23T12:49:13.211Z,26.15
2022-12-23T12:51:47.937Z,26.52
2022-12-23T12:54:26.485Z,23.42
2022-12-23T12:56:57.240Z,21.73
2022-12-23T12:59:29.440Z,21.00
2022-12-23T13:02:21.409Z,22.85
2022-12-23T13:05:19.467Z,21.98
2022-12-23T13:08:07.160Z,24.35
2022-12-23T13:10:43.258Z,23.42
2022-12-23T13:13:27.734Z,27.08
2022-12-23T13:16:02.673Z,19.85
2022-12-23T13:18:42.539Z,26.77
2022-12-23T13:21:17.676Z,21.38
2022-12-23T13:23:53.189Z,20.63
2022-12-23T13:26:33.439Z,22.77
2022-12-23T13:29:36.110Z,22.80
2022-12-23T13:32:13.659Z,21.77
2022-12-23T13:34:54.253Z,19.75
2022-12-23T13:37:34.014Z,21.00
2022-12-23T13:40:14.319Z,19.42
2022-12-23T13:42:49.632Z,16.75
2022-12-23T13:45:20.075Z,20.63
2022-12-23T13:48:04.581Z,21.95
2022-12-23T13:50:41.235Z,18.15
2022-12-23T13:53:21.822Z,22.20
2022-12-23T13:55:58.711Z,21.45
2022-12-23T13:58:31.242Z,18.17
2022-12-23T14:01:20.846Z,23.80
2022-12-23T14:03:52.212Z,20.17
2022-12-23T14:06:44.884Z,20.05
2022-12-23T14:09:17.683Z,19.05
2022-12-23T14:11:46.612Z,20.38
2022-12-23T14:14:23.813Z,21.00
2022-12-23T14:17:06.388Z,23.38
2022-12-23T14:20:00.763Z,24.38
2022-12-23T14:22:59.329Z,21.65
2022-12-23T14:25:52.034Z,21.15
2022-12-23T14:28:51.715Z,21.75
2022-12-23T14:31:32.621Z,22.08
2022-12-23T14:34:06.226Z,23.15
2022-12-23T14:36:34.724Z,22.27
2022-12-23T14:39:31.554Z,20.90
2022-12-23T14:42:05.791Z,21.52
2022-12-23T14:44:49.832Z,22.08
2022-12-23T14:47:31.885Z,23.83
2022-12-23T14:50:33.836Z,23.38
2022-12-23T14:53:03.007Z,19.27
2022-12-23T14:58:45.308Z,20.52
2022-12-23T15:01:17.960Z,20.30
2022-12-23T15:03:50.771Z,17.27
2022-12-23T15:06:28.533Z,19.40
2022-12-23T15:08:57.649Z,13.63
2022-12-23T15:14:00.844Z,15.63
2022-12-23T15:16:33.236Z,16.80
2022-12-23T15:19:07.254Z,18.15
2022-12-23T15:21:36.366Z,12.32
2022-12-23T15:24:04.727Z,10.73
2022-12-23T15:26:34.640Z,11.82
2022-12-23T15:29:02.858Z,9.27
2022-12-23T15:31:34.472Z,12.80
2022-12-23T15:34:11.748Z,14.32
2022-12-23T15:36:46.950Z,12.82
2022-12-23T15:39:21.732Z,14.00
2022-12-23T15:41:51.553Z,13.43
2022-12-23T15:44:22.166Z,15.90
2022-12-23T15:46:51.289Z,11.80
2022-12-23T15:49:21.046Z,13.05
2022-12-23T15:52:12.420Z,17.85
2022-12-23T15:54:46.778Z,14.60
2022-12-23T15:57:20.715Z,13.23
2022-12-23T15:59:49.721Z,12.68
2022-12-23T16:02:59.085Z,17.25
2022-12-23T16:05:12.363Z,12.45
2022-12-23T16:07:42.941Z,13.18
2022-12-23T16:10:17.316Z,12.05
2022-12-23T16:12:51.362Z,15.00
2022-12-23T16:15:27.325Z,15.00
2022-12-23T16:18:14.632Z,15.10
2022-12-23T16:20:45.306Z,13.35
2022-12-23T16:23:14.519Z,15.10
2022-12-23T16:25:50.641Z,17.17
2022-12-23T16:28:24.358Z,16.25
2022-12-23T16:30:55.387Z,14.43
2022-12-23T16:33:35.401Z,14.18
2022-12-23T16:36:17.701Z,13.30
2022-12-23T16:38:48.471Z,11.55
2022-12-23T16:41:16.668Z,12.55
2022-12-23T16:43:51.805Z,12.93
2022-12-23T16:46:22.857Z,18.40
2022-12-23T16:48:53.417Z,15.63
2022-12-23T16:51:26.158Z,17.02
2022-12-23T16:53:56.990Z,15.88
2022-12-23T16:56:29.067Z,15.30
2022-12-23T16:59:01.436Z,13.27
2022-12-23T17:01:33.556Z,18.67
2022-12-23T17:04:02.142Z,20.63
2022-12-23T17:06:30.253Z,21.13
2022-12-23T17:08:59.099Z,18.27
2022-12-23T17:11:36.802Z,24.17
2022-12-23T17:14:13.508Z,15.60
2022-12-23T17:16:44.289Z,14.30
2022-12-23T17:21:44.228Z,17.05
2022-12-23T17:24:15.498Z,7.68
2022-12-23T17:26:43.582Z,9.65
2022-12-23T17:29:13.866Z,7.85
2022-12-23T17:31:43.174Z,8.93
2022-12-23T17:34:17.063Z,6.07
2022-12-23T17:36:50.018Z,7.05
2022-12-23T17:39:19.348Z,6.18
2022-12-23T17:41:47.749Z,7.40
2022-12-23T17:44:19.111Z,10.23
2022-12-23T17:46:48.873Z,4.90
2022-12-23T17:49:17.246Z,4.78
2022-12-23T17:51:45.574Z,6.75
2022-12-23T17:54:23.023Z,5.13
2022-12-23T17:56:51.325Z,9.30
2022-12-23T17:59:21.198Z,7.00
2022-12-23T18:04:18.139Z,10.25
2022-12-23T18:06:47.309Z,8.10
2022-12-23T18:11:46.305Z,6.82
2022-12-23T18:14:17.972Z,9.52
2022-12-23T18:16:47.633Z,11.52
2022-12-23T18:19:18.658Z,8.98
2022-12-23T18:21:49.599Z,10.05
2022-12-23T18:24:18.884Z,8.98
2022-12-23T18:26:47.627Z,12.63
2022-12-23T18:29:16.331Z,9.77
2022-12-23T18:31:51.509Z,15.68
2022-12-23T18:34:21.331Z,12.93
2022-12-23T18:36:51.731Z,12.73
2022-12-23T18:39:21.086Z,13.00
2022-12-23T18:41:49.307Z,18.00
2022-12-23T18:44:19.516Z,15.30
2022-12-23T18:46:49.663Z,14.27
2022-12-23T18:49:18.201Z,14.52
2022-12-23T18:51:46.420Z,20.48
2022-12-23T18:54:15.940Z,18.88
2022-12-23T18:56:44.299Z,14.70
2022-12-23T18:59:22.563Z,13.20
2022-12-23T19:01:53.860Z,14.98
2022-12-23T19:04:22.625Z,14.63
2022-12-23T19:06:51.006Z,13.18
2022-12-23T19:09:23.480Z,20.15
2022-12-23T19:11:54.091Z,18.95
2022-12-23T19:14:22.520Z,17.20
2022-12-23T19:16:52.306Z,22.55
2022-12-23T19:19:25.433Z,25.90
2022-12-23T19:21:54.263Z,33.28
2022-12-23T19:24:22.751Z,25.57
2022-12-23T19:26:50.919Z,20.85
2022-12-23T19:29:19.374Z,19.40
2022-12-23T19:31:47.493Z,19.02
2022-12-23T19:34:16.267Z,16.40
2022-12-23T19:36:45.833Z,15.55
2022-12-23T19:39:16.770Z,20.42
2022-12-23T19:41:45.694Z,13.88
2022-12-23T19:44:14.302Z,14.10
2022-12-23T19:46:42.556Z,15.98
2022-12-23T19:49:17.444Z,15.50
2022-12-23T19:51:49.446Z,12.15
2022-12-23T19:54:18.832Z,11.18
2022-12-23T19:56:47.054Z,18.30
2022-12-23T19:59:15.696Z,12.80
2022-12-23T20:01:43.908Z,13.13
2022-12-23T20:04:12.982Z,15.63
2022-12-23T20:06:42.939Z,19.02
2022-12-23T20:09:14.275Z,24.00
2022-12-23T20:11:44.300Z,16.40
2022-12-23T20:14:14.751Z,20.60
2022-12-23T20:16:44.537Z,16.35
2022-12-23T20:19:12.977Z,15.57
2022-12-23T20:21:41.108Z,20.27
2022-12-23T20:24:10.448Z,16.15
2022-12-23T20:26:40.435Z,11.93
2022-12-23T20:29:09.125Z,20.65
2022-12-23T20:31:38.942Z,18.05
2022-12-23T20:34:09.046Z,12.40
2022-12-23T20:36:37.642Z,11.27
2022-12-23T20:39:09.650Z,10.88
2022-12-23T20:41:39.328Z,14.52
2022-12-23T20:46:56.309Z,11.50
2022-12-23T20:49:25.042Z,30.37
2022-12-23T20:51:53.159Z,39.10
2022-12-23T20:54:26.378Z,40.53
2022-12-23T20:56:59.387Z,25.42
2022-12-23T20:59:27.865Z,23.63
2022-12-23T21:01:56.715Z,23.73
2022-12-23T21:04:25.168Z,24.83
2022-12-23T21:06:53.320Z,18.58
2022-12-23T21:09:21.811Z,18.40
2022-12-23T21:11:50.194Z,20.83
2022-12-23T21:14:20.085Z,16.00
2022-12-23T21:16:48.369Z,17.92
2022-12-23T21:19:18.696Z,22.43
2022-12-23T21:21:49.547Z,21.98
2022-12-23T21:24:18.710Z,21.63
2022-12-23T21:26:55.738Z,21.95
2022-12-23T21:29:27.664Z,15.93
2022-12-23T21:31:56.294Z,22.08
2022-12-23T21:34:25.066Z,20.92
2022-12-23T21:36:53.750Z,17.83
2022-12-23T21:39:22.218Z,24.70
2022-12-23T21:41:51.562Z,37.97
2022-12-23T21:44:21.532Z,38.63
2022-12-23T21:46:52.661Z,54.08
2022-12-23T21:49:21.721Z,72.25
2022-12-23T21:51:49.838Z,31.60
2022-12-23T21:54:18.213Z,38.60
2022-12-23T21:56:46.316Z,37.58
2022-12-23T21:59:16.161Z,37.55
2022-12-23T22:01:45.135Z,42.75
2022-12-23T22:04:15.111Z,36.55
2022-12-23T22:06:44.826Z,38.40
2022-12-23T22:09:16.283Z,31.98
2022-12-23T22:11:44.764Z,34.78
2022-12-23T22:14:15.281Z,33.80
2022-12-23T22:16:44.129Z,34.97
2022-12-23T22:19:14.865Z,39.55
2022-12-23T22:21:43.597Z,34.38
2022-12-23T22:24:12.717Z,37.05
2022-12-23T22:26:41.808Z,25.00
2022-12-23T22:31:41.333Z,21.88
2022-12-23T22:34:12.919Z,26.23
2022-12-23T22:36:42.686Z,19.38
2022-12-23T22:39:19.511Z,28.27
2022-12-23T22:41:48.825Z,22.00
2022-12-23T22:44:17.527Z,23.08
2022-12-23T22:46:45.857Z,26.63
2022-12-23T22:49:14.957Z,30.98
2022-12-23T22:51:45.352Z,27.27
2022-12-23T22:54:14.228Z,29.58
2022-12-23T22:56:42.512Z,32.22
2022-12-23T22:59:20.139Z,22.98
2022-12-23T23:01:50.357Z,37.80
2022-12-23T23:04:19.772Z,35.65
2022-12-23T23:06:49.355Z,22.08
2022-12-23T23:09:19.792Z,28.30
2022-12-23T23:11:48.079Z,34.40
2022-12-23T23:14:16.504Z,29.60
2022-12-23T23:16:44.672Z,31.02
2022-12-23T23:19:15.063Z,35.37
2022-12-23T23:21:43.663Z,30.25
2022-12-23T23:24:13.629Z,26.45
2022-12-23T23:26:41.800Z,23.00
2022-12-23T23:29:10.617Z,28.83
2022-12-23T23:31:42.479Z,35.25
2022-12-23T23:34:11.794Z,30.92
2022-12-23T23:36:40.123Z,32.23
2022-12-23T23:39:08.732Z,35.22
2022-12-23T23:41:38.323Z,39.20
2022-12-23T23:44:06.780Z,37.03
2022-12-23T23:46:35.380Z,38.08
2022-12-23T23:49:03.934Z,36.88
2022-12-23T23:51:32.314Z,30.92
2022-12-23T23:54:00.779Z,36.45
2022-12-23T23:56:35.740Z,39.60
2022-12-23T23:59:07.961Z,37.42
